createdAt,value
2018-06-01T00:01:21.754Z,86.07
2018-06-01T00:04:24.853Z,86.64
2018-06-01T00:07:26.984Z,86.27
2018-06-01T00:10:30.084Z,85.66
2018-06-01T00:13:32.120Z,84.32
2018-06-01T00:16:34.138Z,84.68
2018-06-01T00:19:36.292Z,84.75
2018-06-01T00:22:38.352Z,84.92
2018-06-01T00:25:41.484Z,86.78
2018-06-01T00:28:43.620Z,85.95
2018-06-01T00:31:45.677Z,85.10
2018-06-01T00:34:47.741Z,87.09
2018-06-01T00:37:49.840Z,84.97
2018-06-01T00:40:51.899Z,83.83
2018-06-01T00:43:54.065Z,83.72
2018-06-01T00:46:56.137Z,84.85
2018-06-01T00:49:58.513Z,83.37
2018-06-01T00:53:00.670Z,85.19
2018-06-01T00:56:02.759Z,85.35
2018-06-01T00:59:04.824Z,85.05
2018-06-01T01:02:06.892Z,84.87
2018-06-01T01:05:09.062Z,84.88
2018-06-01T01:08:11.248Z,83.81
2018-06-01T01:11:13.498Z,84.49
2018-06-01T01:14:15.483Z,83.98
2018-06-01T01:17:18.169Z,84.56
2018-06-01T01:20:20.245Z,85.67
2018-06-01T01:23:22.464Z,84.46
2018-06-01T01:26:24.630Z,87.26
2018-06-01T01:29:26.674Z,86.95
2018-06-01T01:32:28.822Z,87.35
2018-06-01T01:35:30.930Z,84.48
2018-06-01T01:38:33.045Z,85.14
2018-06-01T01:41:35.221Z,86.22
2018-06-01T01:44:38.358Z,84.65
2018-06-01T01:47:40.501Z,85.31
2018-06-01T01:50:42.910Z,86.59
2018-06-01T01:53:46.052Z,85.62
2018-06-01T01:56:48.131Z,87.69
2018-06-01T01:59:50.308Z,87.48
2018-06-01T02:02:52.372Z,87.13
2018-06-01T02:05:54.442Z,86.51
2018-06-01T02:08:56.777Z,87.43
2018-06-01T02:11:58.896Z,87.88
2018-06-01T02:15:00.846Z,86.35
2018-06-01T02:18:02.964Z,86.48
2018-06-01T02:21:05.096Z,85.84
2018-06-01T02:24:07.157Z,87.34
2018-06-01T02:27:09.318Z,86.79
2018-06-01T02:30:12.889Z,86.48
2018-06-01T02:33:15.008Z,86.68
2018-06-01T02:36:17.176Z,87.23
2018-06-01T02:39:19.307Z,87.03
2018-06-01T02:42:21.508Z,87.74
2018-06-01T02:45:23.628Z,86.70
2018-06-01T02:48:25.765Z,86.71
2018-06-01T02:51:28.950Z,86.65
2018-06-01T02:54:31.080Z,86.92
2018-06-01T02:57:33.216Z,86.57
2018-06-01T03:00:35.419Z,85.97
2018-06-01T03:03:37.560Z,86.39
2018-06-01T03:06:48.796Z,85.96
2018-06-01T03:09:50.994Z,85.65
2018-06-01T03:12:53.033Z,85.94
2018-06-01T03:16:03.562Z,86.16
2018-06-01T03:19:05.571Z,86.35
2018-06-01T03:22:07.669Z,85.74
2018-06-01T03:25:09.733Z,86.22
2018-06-01T03:28:13.030Z,86.39
2018-06-01T03:31:15.177Z,84.80
2018-06-01T03:34:17.252Z,86.10
2018-06-01T03:37:19.423Z,85.24
2018-06-01T03:40:22.580Z,85.53
2018-06-01T03:43:24.693Z,85.90
2018-06-01T03:46:26.772Z,85.89
2018-06-01T03:49:28.933Z,85.22
2018-06-01T03:52:31.060Z,86.00
2018-06-01T03:55:33.056Z,87.05
2018-06-01T03:58:35.136Z,85.88
2018-06-01T04:01:37.313Z,85.69
2018-06-01T04:04:39.416Z,86.86
2018-06-01T04:07:42.868Z,87.62
2018-06-01T04:10:45.136Z,86.55
2018-06-01T04:13:47.184Z,86.07
2018-06-01T04:16:49.307Z,86.78
2018-06-01T04:19:51.368Z,86.14
2018-06-01T04:22:53.435Z,86.95
2018-06-01T04:25:55.590Z,87.29
2018-06-01T04:28:58.704Z,87.34
2018-06-01T04:32:00.945Z,86.56
2018-06-01T04:35:03.047Z,87.42
2018-06-01T04:38:05.095Z,85.91
2018-06-01T04:41:07.202Z,86.65
2018-06-01T04:44:09.385Z,86.07
2018-06-01T04:47:12.599Z,86.49
2018-06-01T04:50:14.723Z,85.01
2018-06-01T04:53:16.860Z,86.55
2018-06-01T04:56:18.961Z,85.23
2018-06-01T04:59:20.931Z,85.39
2018-06-01T05:02:22.979Z,84.88
2018-06-01T05:05:36.546Z,85.18
2018-06-01T05:08:38.592Z,84.02
2018-06-01T05:11:40.675Z,83.27
2018-06-01T05:14:43.412Z,83.92
2018-06-01T05:17:47.524Z,84.01
2018-06-01T05:21:00.508Z,85.14
2018-06-01T05:24:02.554Z,83.68
2018-06-01T05:27:04.656Z,83.93
2018-06-01T05:30:06.613Z,84.60
2018-06-01T05:33:08.764Z,83.25
2018-06-01T05:36:10.952Z,83.65
2018-06-01T05:39:14.060Z,84.14
2018-06-01T05:42:16.088Z,83.39
2018-06-01T05:45:18.169Z,82.27
2018-06-01T05:48:20.429Z,83.96
2018-06-01T05:51:22.532Z,81.49
2018-06-01T05:54:24.609Z,82.17
2018-06-01T05:57:26.657Z,82.63
2018-06-01T06:00:28.692Z,81.77
2018-06-01T06:03:31.810Z,82.68
2018-06-01T06:06:33.975Z,83.41
2018-06-01T06:09:36.020Z,83.20
2018-06-01T06:12:38.091Z,83.58
2018-06-01T06:15:40.193Z,83.37
2018-06-01T06:18:43.387Z,83.39
2018-06-01T06:21:45.473Z,83.73
2018-06-01T06:24:47.628Z,84.18
2018-06-01T06:27:49.679Z,84.61
2018-06-01T06:30:51.907Z,83.76
2018-06-01T06:33:54.128Z,84.13
2018-06-01T06:36:56.324Z,82.90
2018-06-01T06:39:58.301Z,81.66
2018-06-01T06:43:01.333Z,83.14
2018-06-01T06:46:08.141Z,81.52
2018-06-01T06:49:10.209Z,81.48
2018-06-01T06:52:14.335Z,81.45
2018-06-01T06:55:16.416Z,82.13
2018-06-01T06:58:18.443Z,81.28
2018-06-01T07:01:20.537Z,79.29
2018-06-01T07:04:22.677Z,80.46
2018-06-01T07:07:24.774Z,79.87
2018-06-01T07:10:26.856Z,78.98
2018-06-01T07:13:29.391Z,78.03
2018-06-01T07:16:31.469Z,77.51
2018-06-01T07:19:33.600Z,76.06
2018-06-01T07:22:35.728Z,76.42
2018-06-01T07:25:37.827Z,77.30
2018-06-01T07:28:40.578Z,75.79
2018-06-01T07:31:42.673Z,75.18
2018-06-01T07:34:45.723Z,76.10
2018-06-01T07:37:47.872Z,75.87
2018-06-01T07:40:49.985Z,75.25
2018-06-01T07:43:52.096Z,74.97
2018-06-01T07:46:54.189Z,74.15
2018-06-01T07:49:56.326Z,74.13
2018-06-01T07:52:58.360Z,73.44
2018-06-01T07:56:00.525Z,72.79
2018-06-01T07:59:02.776Z,71.97
2018-06-01T08:02:04.909Z,73.33
2018-06-01T08:05:06.922Z,73.40
2018-06-01T08:08:09.009Z,71.98
2018-06-01T08:11:11.072Z,72.79
2018-06-01T08:14:14.275Z,71.82
2018-06-01T08:17:16.521Z,72.01
2018-06-01T08:20:18.686Z,71.09
2018-06-01T08:23:20.825Z,70.59
2018-06-01T08:26:22.836Z,71.05
2018-06-01T08:29:24.781Z,72.24
2018-06-01T08:32:26.951Z,72.69
2018-06-01T08:35:29.167Z,71.30
2018-06-01T08:38:32.304Z,69.01
2018-06-01T08:41:34.851Z,70.35
2018-06-01T08:44:36.945Z,70.18
2018-06-01T08:47:39.094Z,67.97
2018-06-01T08:50:42.205Z,68.44
2018-06-01T08:53:45.334Z,68.84
2018-06-01T08:56:47.431Z,69.08
2018-06-01T08:59:49.508Z,68.18
2018-06-01T09:02:51.651Z,68.16
2018-06-01T09:05:53.780Z,68.88
2018-06-01T09:08:55.766Z,69.60
2018-06-01T09:11:58.910Z,68.22
2018-06-01T09:15:00.910Z,68.42
2018-06-01T09:18:02.969Z,69.47
2018-06-01T09:21:05.050Z,68.14
2018-06-01T09:24:07.160Z,68.55
2018-06-01T09:27:09.243Z,68.15
2018-06-01T09:30:11.313Z,68.33
2018-06-01T09:33:13.532Z,66.03
2018-06-01T09:36:15.707Z,67.77
2018-06-01T09:39:17.691Z,66.88
2018-06-01T09:42:19.829Z,67.69
2018-06-01T09:45:21.963Z,67.57
2018-06-01T09:48:24.355Z,67.09
2018-06-01T09:51:26.564Z,67.06
2018-06-01T09:54:28.786Z,67.35
2018-06-01T09:57:30.868Z,67.30
2018-06-01T10:00:37.622Z,65.55
2018-06-01T10:03:39.680Z,65.59
2018-06-01T10:06:41.780Z,66.83
2018-06-01T10:09:45.340Z,65.37
2018-06-01T10:12:47.540Z,66.28
2018-06-01T10:15:49.608Z,64.23
2018-06-01T10:18:51.646Z,63.89
2018-06-01T10:21:53.754Z,64.15
2018-06-01T10:24:55.775Z,63.06
2018-06-01T10:27:57.855Z,64.21
2018-06-01T10:30:59.846Z,60.77
2018-06-01T10:34:01.950Z,61.56
2018-06-01T10:37:05.032Z,62.29
2018-06-01T10:40:07.095Z,61.38
2018-06-01T10:43:09.260Z,60.06
2018-06-01T10:46:11.394Z,61.22
2018-06-01T10:49:13.484Z,58.92
2018-06-01T10:52:16.756Z,59.25
2018-06-01T10:55:19.891Z,59.22
2018-06-01T10:58:22.092Z,57.56
2018-06-01T11:01:25.228Z,58.60
2018-06-01T11:04:27.327Z,59.51
2018-06-01T11:07:30.402Z,56.91
2018-06-01T11:10:32.459Z,56.05
2018-06-01T11:13:34.433Z,53.92
2018-06-01T11:16:36.524Z,53.95
2018-06-01T11:19:39.072Z,54.45
2018-06-01T11:22:41.165Z,53.42
2018-06-01T11:25:43.250Z,53.23
2018-06-01T11:28:46.507Z,53.87
2018-06-01T11:31:48.626Z,54.07
2018-06-01T11:34:51.480Z,54.06
2018-06-01T11:37:53.567Z,51.45
2018-06-01T11:40:55.794Z,50.93
2018-06-01T11:43:57.831Z,48.65
2018-06-01T11:47:00.004Z,49.38
2018-06-01T11:50:02.090Z,50.53
2018-06-01T11:53:04.280Z,48.62
2018-06-01T11:56:06.402Z,49.19
2018-06-01T11:59:08.446Z,48.92
2018-06-01T12:02:10.615Z,48.43
2018-06-01T12:05:12.678Z,49.74
2018-06-01T12:08:15.659Z,49.35
2018-06-01T12:11:17.960Z,49.40
2018-06-01T12:14:20.552Z,49.13
2018-06-01T12:17:22.662Z,49.25
2018-06-01T12:20:24.773Z,48.61
2018-06-01T12:23:27.027Z,48.56
2018-06-01T12:26:29.080Z,47.32
2018-06-01T12:29:31.185Z,46.59
2018-06-01T12:32:33.296Z,47.98
2018-06-01T12:35:35.355Z,48.48
2018-06-01T12:38:37.482Z,45.54
2018-06-01T12:41:39.564Z,47.84
2018-06-01T12:44:42.635Z,48.33
2018-06-01T12:47:45.960Z,47.19
2018-06-01T12:50:47.995Z,47.43
2018-06-01T12:53:50.092Z,47.63
2018-06-01T12:56:52.254Z,48.04
2018-06-01T12:59:54.311Z,47.08
2018-06-01T13:02:56.364Z,46.38
2018-06-01T13:05:58.488Z,45.44
2018-06-01T13:09:00.565Z,44.61
2018-06-01T13:12:02.660Z,47.50
2018-06-01T13:15:04.631Z,45.82
2018-06-01T13:18:06.724Z,45.35
2018-06-01T13:21:08.777Z,44.77
2018-06-01T13:24:10.929Z,45.68
2018-06-01T13:27:12.996Z,45.36
2018-06-01T13:30:16.139Z,45.78
2018-06-01T13:33:19.000Z,45.65
2018-06-01T13:36:21.123Z,46.23
2018-06-01T13:39:23.298Z,46.74
2018-06-01T13:42:25.436Z,47.12
2018-06-01T13:45:27.504Z,48.08
2018-06-01T13:48:29.705Z,47.62
2018-06-01T13:51:32.907Z,49.64
2018-06-01T13:54:34.952Z,48.80
2018-06-01T13:57:37.147Z,48.53
2018-06-01T14:00:39.335Z,48.68
2018-06-01T14:03:42.379Z,48.49
2018-06-01T14:06:44.445Z,48.43
2018-06-01T14:09:47.860Z,47.51
2018-06-01T14:12:49.947Z,46.06
2018-06-01T14:15:52.064Z,46.82
2018-06-01T14:18:54.132Z,45.62
2018-06-01T14:21:56.268Z,46.86
2018-06-01T14:24:58.495Z,48.32
2018-06-01T14:28:00.535Z,48.99
2018-06-01T14:31:02.632Z,50.41
2018-06-01T14:34:04.728Z,51.67
2018-06-01T14:37:07.861Z,52.68
2018-06-01T14:40:09.970Z,52.67
2018-06-01T14:43:12.018Z,53.46
2018-06-01T14:46:14.164Z,53.33
2018-06-01T14:49:17.037Z,51.87
2018-06-01T14:52:19.125Z,51.04
2018-06-01T14:55:21.145Z,50.01
2018-06-01T14:58:23.260Z,48.49
2018-06-01T15:01:25.261Z,44.65
2018-06-01T15:04:27.351Z,45.06
2018-06-01T15:07:29.373Z,45.29
2018-06-01T15:10:32.448Z,44.93
2018-06-01T15:13:34.566Z,44.24
2018-06-01T15:16:36.535Z,44.22
2018-06-01T15:19:38.591Z,45.86
2018-06-01T15:22:40.665Z,45.71
2018-06-01T15:25:42.805Z,45.75
2018-06-01T15:28:46.946Z,46.67
2018-06-01T15:31:49.023Z,46.05
2018-06-01T15:34:51.058Z,45.01
2018-06-01T15:37:53.169Z,45.21
2018-06-01T15:40:55.286Z,45.42
2018-06-01T15:43:57.474Z,46.10
2018-06-01T15:46:59.573Z,46.33
2018-06-01T15:50:01.824Z,46.69
2018-06-01T15:53:03.920Z,46.09
2018-06-01T15:56:06.052Z,47.55
2018-06-01T15:59:08.255Z,46.76
2018-06-01T16:02:10.360Z,46.62
2018-06-01T16:05:12.391Z,47.75
2018-06-01T16:08:14.622Z,49.75
2018-06-01T16:11:18.889Z,50.40
2018-06-01T16:14:20.994Z,54.42
2018-06-01T16:17:22.954Z,57.54
2018-06-01T16:20:24.974Z,58.25
2018-06-01T16:23:27.064Z,59.48
2018-06-01T16:26:29.117Z,58.95
2018-06-01T16:29:31.371Z,57.77
2018-06-01T16:32:34.493Z,57.29
2018-06-01T16:35:36.649Z,57.22
2018-06-01T16:38:38.705Z,55.68
2018-06-01T16:41:40.799Z,55.70
2018-06-01T16:44:42.951Z,55.76
2018-06-01T16:47:45.091Z,55.52
2018-06-01T16:50:48.335Z,55.83
2018-06-01T16:53:51.442Z,55.84
2018-06-01T16:56:54.514Z,56.32
2018-06-01T16:59:56.680Z,56.08
2018-06-01T17:02:58.807Z,56.01
2018-06-01T17:06:00.918Z,56.33
2018-06-01T17:09:03.871Z,56.15
2018-06-01T17:12:06.043Z,56.50
2018-06-01T17:15:08.588Z,56.79
2018-06-01T17:18:10.746Z,57.17
2018-06-01T17:21:12.827Z,56.50
2018-06-01T17:24:14.891Z,58.23
2018-06-01T17:27:18.164Z,58.48
2018-06-01T17:30:20.241Z,60.02
2018-06-01T17:33:22.351Z,61.92
2018-06-01T17:36:24.472Z,62.70
2018-06-01T17:39:26.744Z,62.83
2018-06-01T17:42:28.951Z,62.03
2018-06-01T17:45:31.228Z,62.01
2018-06-01T17:48:33.275Z,61.82
2018-06-01T17:51:35.499Z,60.41
2018-06-01T17:54:37.648Z,53.87
2018-06-01T17:57:39.906Z,54.81
2018-06-01T18:00:42.061Z,54.70
2018-06-01T18:03:44.143Z,54.29
2018-06-01T18:06:46.233Z,54.20
2018-06-01T18:09:48.988Z,54.79
2018-06-01T18:12:51.144Z,54.97
2018-06-01T18:15:53.483Z,55.28
2018-06-01T18:18:55.618Z,55.74
2018-06-01T18:21:57.668Z,55.74
2018-06-01T18:24:59.755Z,56.50
2018-06-01T18:28:01.828Z,57.52
2018-06-01T18:31:03.895Z,58.32
2018-06-01T18:34:05.893Z,59.17
2018-06-01T18:37:08.015Z,59.17
2018-06-01T18:40:10.052Z,59.39
2018-06-01T18:43:13.172Z,59.70
2018-06-01T18:46:15.229Z,60.23
2018-06-01T18:49:19.580Z,60.72
2018-06-01T18:52:21.734Z,60.38
2018-06-01T18:55:23.726Z,60.60
2018-06-01T18:58:25.766Z,60.71
2018-06-01T19:01:27.945Z,60.90
2018-06-01T19:04:30.123Z,61.46
2018-06-01T19:07:32.243Z,61.70
2018-06-01T19:10:34.408Z,61.94
2018-06-01T19:13:36.536Z,62.19
2018-06-01T19:16:38.709Z,62.13
2018-06-01T19:19:40.857Z,62.03
2018-06-01T19:22:42.915Z,61.84
2018-06-01T19:25:44.993Z,61.88
2018-06-01T19:28:49.945Z,62.37
2018-06-01T19:31:52.015Z,62.02
2018-06-01T19:34:54.104Z,62.68
2018-06-01T19:37:56.327Z,63.16
2018-06-01T19:40:58.439Z,63.31
2018-06-01T19:44:00.640Z,62.54
2018-06-01T19:47:02.668Z,62.23
2018-06-01T19:50:05.033Z,63.46
2018-06-01T19:53:07.097Z,65.28
2018-06-01T19:56:11.163Z,65.14
2018-06-01T19:59:13.296Z,66.92
2018-06-01T20:02:15.402Z,67.72
2018-06-01T20:05:18.427Z,67.76
2018-06-01T20:08:20.732Z,69.01
2018-06-01T20:11:22.809Z,69.00
2018-06-01T20:14:24.856Z,68.79
2018-06-01T20:17:27.034Z,68.51
2018-06-01T20:20:29.111Z,69.34
2018-06-01T20:23:31.308Z,68.28
2018-06-01T20:26:33.533Z,69.22
2018-06-01T20:29:35.724Z,68.40
2018-06-01T20:32:37.761Z,69.46
2018-06-01T20:35:39.866Z,69.48
2018-06-01T20:38:42.002Z,69.67
2018-06-01T20:41:44.092Z,70.19
2018-06-01T20:44:46.308Z,69.28
2018-06-01T20:47:49.643Z,69.33
2018-06-01T20:50:51.721Z,69.14
2018-06-01T20:53:54.499Z,69.28
2018-06-01T20:56:56.583Z,69.37
2018-06-01T20:59:58.819Z,68.62
2018-06-01T21:03:00.936Z,68.69
2018-06-01T21:06:03.038Z,69.64
2018-06-01T21:09:05.191Z,68.74
2018-06-01T21:12:07.319Z,70.11
2018-06-01T21:15:09.361Z,70.68
2018-06-01T21:18:11.521Z,69.75
2018-06-01T21:21:13.557Z,70.87
2018-06-01T21:24:15.698Z,71.55
2018-06-01T21:27:17.788Z,71.23
2018-06-01T21:30:19.827Z,71.15
2018-06-01T21:33:21.929Z,70.85
2018-06-01T21:36:24.844Z,69.89
2018-06-01T21:39:27.001Z,71.25
2018-06-01T21:42:29.047Z,71.94
2018-06-01T21:45:31.091Z,71.24
2018-06-01T21:48:33.307Z,71.14
2018-06-01T21:51:35.347Z,70.90
2018-06-01T21:54:38.486Z,70.75
2018-06-01T21:57:40.519Z,70.57
2018-06-01T22:00:42.640Z,70.57
2018-06-01T22:03:44.763Z,70.31
2018-06-01T22:06:46.803Z,70.86
2018-06-01T22:09:50.245Z,71.28
2018-06-01T22:12:52.407Z,70.89
2018-06-01T22:15:55.506Z,71.38
2018-06-01T22:18:57.535Z,71.02
2018-06-01T22:21:59.891Z,71.16
2018-06-01T22:25:02.015Z,70.80
2018-06-01T22:28:04.197Z,71.37
2018-06-01T22:31:06.241Z,71.63
2018-06-01T22:34:11.962Z,71.32
2018-06-01T22:37:14.054Z,71.35
2018-06-01T22:40:16.139Z,71.11
2018-06-01T22:43:18.338Z,70.96
2018-06-01T22:46:20.412Z,70.62
2018-06-01T22:49:22.348Z,71.07
2018-06-01T22:52:25.532Z,70.73
2018-06-01T22:55:27.652Z,70.44
2018-06-01T22:58:29.769Z,71.35
2018-06-01T23:01:31.824Z,72.18
2018-06-01T23:04:33.966Z,72.71
2018-06-01T23:07:36.043Z,72.02
2018-06-01T23:10:38.167Z,72.05
2018-06-01T23:13:40.208Z,71.69
2018-06-01T23:16:42.278Z,72.48
2018-06-01T23:19:44.673Z,73.64
2018-06-01T23:22:46.727Z,74.31
2018-06-01T23:25:48.797Z,74.11
2018-06-01T23:28:51.876Z,73.66
2018-06-01T23:31:55.200Z,73.56
2018-06-01T23:34:57.270Z,73.99
2018-06-01T23:37:59.328Z,74.34
2018-06-01T23:41:01.516Z,74.26
2018-06-01T23:44:03.548Z,74.03
2018-06-01T23:47:05.634Z,73.69
2018-06-01T23:50:07.688Z,74.18
2018-06-01T23:53:09.775Z,74.82
2018-06-01T23:56:11.868Z,74.19
2018-06-01T23:59:14.012Z,74.37
